Have a Safe July 4th! 

Flight Track Log - Related Links

Times and Time Zones

All times are in EDT time to prevent confusion due to time zone crossing. See the SKW4794 flight status page for this flight to view local times or setup timezone preferences in your user account.

Time Position Orientation Groundspeed Altitude Reporting Facility
EDT Latitude Longitude Course Direction KTS MPH feet Rate Location/Type
Tue 05:56:50 PM 33.4500 -111.9833 273° West 165 190 2,100  Level Phoenix TRACON
Tue 05:57:38 PM 33.4500 -111.9333 90° East 206 237 3,700 2,111 Climbing Phoenix TRACON
Tue 05:58:38 PM 33.4333 -111.8667 107° East 225 259 5,900 1,960 Climbing Phoenix TRACON
Tue 05:59:00 PM 33.4333 -112.2743 270° West  Level FlightAware Approximate
Tue 05:59:19 PM 33.3975 -111.8436 152° Southeast 253 291 7,000  Level Albuquerque Center
Tue 06:00:00 PM 33.4333 -112.3657 270° West  Level FlightAware Approximate
Tue 06:00:21 PM 33.3506 -111.9086 229° Southwest 271 312 9,100  Level Albuquerque Center
Tue 06:01:00 PM 33.4364 -112.4571 273° West  Level FlightAware Approximate
Tue 06:01:22 PM 33.3589 -112.0075 276° West 302 348 10,400  Level Albuquerque Center
Tue 06:02:00 PM 33.4401 -112.5484 273° West  Level FlightAware Approximate
Tue 06:02:24 PM 33.3719 -112.1261 278° West 358 412 11,200  Level Albuquerque Center
Tue 06:03:26 PM 33.3864 -112.2561 278° West 387 445 12,800 1,561 Climbing Albuquerque Center
Tue 06:04:27 PM 33.4028 -112.3894 278° West 403 464 14,400 1,574 Climbing Albuquerque Center
Tue 06:05:28 PM 33.4192 -112.5250 278° West 410 472 16,000 1,512 Climbing Albuquerque Center
Tue 06:06:30 PM 33.4344 -112.6586 278° West 412 474 17,500 1,756 Climbing Albuquerque Center
Tue 06:07:31 PM 33.4547 -112.8244 278° West 419 482 19,600 1,805 Climbing Albuquerque Center
Tue 06:08:33 PM 33.5003 -112.9531 293° West 429 494 21,200 1,268 Climbing Albuquerque Center
Tue 06:09:34 PM 33.5458 -113.0822 293° West 422 486 22,200 1,033 Climbing Albuquerque Center
Tue 06:10:35 PM 33.5931 -113.2136 293° West 429 494 23,300 1,073 Climbing Albuquerque Center
Tue 06:11:37 PM 33.6417 -113.3542 293° West 435 501 24,400 1,024 Climbing Albuquerque Center
Tue 06:12:38 PM 33.6894 -113.4900 293° West 439 505 25,400 927 Climbing Albuquerque Center
Tue 06:13:40 PM 33.7383 -113.6281 293° West 447 514 26,300 878 Climbing Albuquerque Center
Tue 06:14:41 PM 33.7881 -113.7681 293° West 453 521 27,200 927 Climbing Albuquerque Center
Tue 06:15:43 PM 33.8381 -113.9108 293° West 460 529 28,200 927 Climbing Albuquerque Center
Tue 06:16:44 PM 33.8878 -114.0536 293° West 463 533 29,100 984 Climbing Albuquerque Center
Tue 06:17:45 PM 33.9392 -114.2311 289° West 467 537 30,200 1,024 Climbing Albuquerque Center
Tue 06:18:47 PM 33.9539 -114.3742 277° West 462 532 31,200 878 Climbing Albuquerque Center
Tue 06:19:48 PM 33.9739 -114.5256 279° West 462 532 32,000 338 Climbing Albuquerque Center
Tue 06:21:09 PM 34.0003 -114.7539 278° West 478 550 32,000  Level Los Angeles Center
Tue 06:22:11 PM 34.0189 -114.9136 278° West 483 556 32,000  Level Los Angeles Center
Tue 06:23:13 PM 34.0367 -115.0719 278° West 480 552 32,000  Level Los Angeles Center
Tue 06:24:28 PM 34.0558 -115.2314 278° West 483 556 32,000  Level Los Angeles Center
Tue 06:25:30 PM 34.0794 -115.4511 277° West 473 544 32,000 -44 Level Los Angeles Center
Tue 06:26:44 PM 34.0953 -115.5994 277° West 453 521 31,900 -44 Descending Los Angeles Center
Tue 06:27:47 PM 34.1117 -115.7833 276° West 461 531 31,900  Level Los Angeles Center
Tue 06:28:49 PM 34.0889 -115.9322 260° West 460 529 31,900 48 Level Los Angeles Center
Tue 06:29:51 PM 34.0678 -116.0811 260° West 454 522 32,000 48 Climbing Los Angeles Center
Tue 06:30:53 PM 34.0403 -116.2614 260° West 457 526 32,000 -1,210 Level Los Angeles Center
Tue 06:31:55 PM 34.0167 -116.4111 259° West 457 526 29,500 -2,903 Descending Los Angeles Center
Tue 06:32:57 PM 33.9994 -116.5608 262° West 456 525 26,000 -3,290 Descending Los Angeles Center
Tue 06:33:59 PM 33.9872 -116.7064 264° West 443 510 22,700 -3,242 Descending Los Angeles Center
Tue 06:35:01 PM 33.9747 -116.8478 264° West 431 496 19,300 -2,515 Descending Los Angeles Center
Tue 06:36:15 PM 33.9667 -117.0333 267° West 369 425 17,000 -1,071 Descending Southern California TRACON
Tue 06:37:21 PM 33.9500 -117.1667 261° West 355 409 16,800 -619 Descending Southern California TRACON
Tue 06:38:21 PM 33.9333 -117.2833 260° West 352 405 15,700 -1,000 Descending Southern California TRACON
Tue 06:39:21 PM 33.9333 -117.3833 270° West 346 398 14,800 -992 Descending Southern California TRACON
Tue 06:40:22 PM 33.9833 -117.5000 297° West 339 390 13,700 -992 Descending Southern California TRACON
Tue 06:41:22 PM 34.0167 -117.5833 296° West 304 350 12,800 -950 Descending Southern California TRACON
Tue 06:42:22 PM 34.0000 -117.6833 259° West 301 346 11,800 -1,000 Descending Southern California TRACON
Tue 06:43:22 PM 34.0000 -117.7833 270° West 297 342 10,800 -1,000 Descending Southern California TRACON
Tue 06:44:22 PM 33.9833 -117.8833 259° West 263 303 9,800 -1,300 Descending Southern California TRACON
Tue 06:45:22 PM 33.9833 -117.9667 270° West 242 278 8,200 -1,835 Descending Southern California TRACON
Tue 06:46:23 PM 33.9667 -118.0500 256° West 247 284 6,100 -1,636 Descending Southern California TRACON
Tue 06:47:23 PM 33.9667 -118.1167 270° West 192 221 4,900 -1,240 Descending Southern California TRACON
Tue 06:48:24 PM 33.9667 -118.1833 270° West 191 220 3,600 -1,279 Descending Southern California TRACON

Login

Don't have an account? Register now (free) for customized features, flight alerts, and more!